createdAt,value
2022-09-30T00:01:45.118Z,4.66
2022-09-30T00:04:15.929Z,4.55
2022-09-30T00:06:44.071Z,4.60
2022-09-30T00:09:13.053Z,4.55
2022-09-30T00:11:43.273Z,4.47
2022-09-30T00:14:16.270Z,4.31
2022-09-30T00:16:45.113Z,4.38
2022-09-30T00:19:13.586Z,4.26
2022-09-30T00:21:42.517Z,4.24
2022-09-30T00:24:11.011Z,3.89
2022-09-30T00:26:39.189Z,4.08
2022-09-30T00:29:09.056Z,4.05
2022-09-30T00:31:37.268Z,4.18
2022-09-30T00:34:08.932Z,4.28
2022-09-30T00:36:40.804Z,4.24
2022-09-30T00:39:10.461Z,3.97
2022-09-30T00:41:39.161Z,3.85
2022-09-30T00:44:47.922Z,3.89
2022-09-30T00:47:32.491Z,4.15
2022-09-30T00:50:03.076Z,4.04
2022-09-30T00:52:32.267Z,3.81
2022-09-30T00:55:05.591Z,3.88
2022-09-30T00:57:33.784Z,3.64
2022-09-30T01:00:03.847Z,3.71
2022-09-30T01:02:32.037Z,3.71
2022-09-30T01:05:00.222Z,3.71
2022-09-30T01:07:29.026Z,3.85
2022-09-30T01:09:58.156Z,3.93
2022-09-30T01:12:27.531Z,3.97
2022-09-30T01:14:59.409Z,3.77
2022-09-30T01:17:41.777Z,3.82
2022-09-30T01:20:35.416Z,3.78
2022-09-30T01:23:22.579Z,3.66
2022-09-30T01:26:27.970Z,3.66
2022-09-30T01:29:18.919Z,3.65
2022-09-30T01:31:57.836Z,3.57
2022-09-30T01:34:41.433Z,3.30
2022-09-30T01:37:17.593Z,3.31
2022-09-30T01:39:58.477Z,3.26
2022-09-30T01:42:36.190Z,3.44
2022-09-30T01:45:11.259Z,3.27
2022-09-30T01:47:46.676Z,3.32
2022-09-30T01:50:21.704Z,3.38
2022-09-30T01:52:57.703Z,3.42
2022-09-30T01:55:31.240Z,3.41
2022-09-30T01:58:06.472Z,3.47
2022-09-30T02:00:39.488Z,3.29
2022-09-30T02:03:16.263Z,3.26
2022-09-30T02:05:51.985Z,3.00
2022-09-30T02:08:26.462Z,3.18
2022-09-30T02:11:00.015Z,2.99
2022-09-30T02:13:35.056Z,2.90
2022-09-30T02:16:13.272Z,3.13
2022-09-30T02:18:46.887Z,3.27
2022-09-30T02:21:20.464Z,3.04
2022-09-30T02:23:54.044Z,3.07
2022-09-30T02:26:26.934Z,2.94
2022-09-30T02:29:04.396Z,3.00
2022-09-30T02:31:37.262Z,2.90
2022-09-30T02:34:10.109Z,2.94
2022-09-30T02:36:45.430Z,3.03
2022-09-30T02:39:21.960Z,2.86
2022-09-30T02:41:54.851Z,2.97
2022-09-30T02:44:23.085Z,2.74
2022-09-30T02:46:57.904Z,2.79
2022-09-30T02:49:38.093Z,2.97
2022-09-30T02:52:15.789Z,3.02
2022-09-30T02:54:54.683Z,2.93
2022-09-30T02:57:35.053Z,2.88
2022-09-30T03:00:04.584Z,2.96
2022-09-30T03:02:34.276Z,2.77
2022-09-30T03:05:04.904Z,2.67
2022-09-30T03:07:33.476Z,2.60
2022-09-30T03:10:01.637Z,2.70
2022-09-30T03:12:42.575Z,2.66
2022-09-30T03:15:26.304Z,2.66
2022-09-30T03:18:15.164Z,2.64
2022-09-30T03:20:59.825Z,2.64
2022-09-30T03:23:52.612Z,2.68
2022-09-30T03:26:36.010Z,2.64
2022-09-30T03:29:14.664Z,2.70
2022-09-30T03:31:58.658Z,2.66
2022-09-30T03:34:33.230Z,2.69
2022-09-30T03:37:08.704Z,2.56
2022-09-30T03:39:52.431Z,2.59
2022-09-30T03:42:27.387Z,2.60
2022-09-30T03:45:06.560Z,2.65
2022-09-30T03:47:39.961Z,2.75
2022-09-30T03:50:10.733Z,2.70
2022-09-30T03:52:40.367Z,2.41
2022-09-30T03:55:11.508Z,2.27
2022-09-30T03:57:39.721Z,2.35
2022-09-30T04:00:08.983Z,2.37
2022-09-30T04:02:37.929Z,2.43
2022-09-30T04:05:08.709Z,2.34
2022-09-30T04:07:37.117Z,2.32
2022-09-30T04:10:07.272Z,2.31
2022-09-30T04:12:35.447Z,2.40
2022-09-30T04:15:03.575Z,2.47
2022-09-30T04:17:31.992Z,2.44
2022-09-30T04:20:00.212Z,2.27
2022-09-30T04:22:28.391Z,2.11
2022-09-30T04:24:56.491Z,2.20
2022-09-30T04:27:27.363Z,2.34
2022-09-30T04:29:55.480Z,2.46
2022-09-30T04:32:25.629Z,2.46
2022-09-30T04:34:54.199Z,2.22
2022-09-30T04:37:22.298Z,2.38
2022-09-30T04:39:50.404Z,2.39
2022-09-30T04:42:18.983Z,2.44
2022-09-30T04:44:49.140Z,2.15
2022-09-30T04:47:17.247Z,2.14
2022-09-30T04:49:45.373Z,2.22
2022-09-30T04:52:13.610Z,2.19
2022-09-30T04:54:41.729Z,2.32
2022-09-30T04:57:10.379Z,2.12
2022-09-30T04:59:38.537Z,2.01
2022-09-30T05:02:11.145Z,2.20
2022-09-30T05:04:39.398Z,1.99
2022-09-30T05:07:08.850Z,1.76
2022-09-30T05:09:37.051Z,1.87
2022-09-30T05:12:05.401Z,2.00
2022-09-30T05:14:34.586Z,1.93
2022-09-30T05:17:03.029Z,1.80
2022-09-30T05:19:32.552Z,1.94
2022-09-30T05:22:00.863Z,1.96
2022-09-30T05:24:30.101Z,1.91
2022-09-30T05:26:58.436Z,2.04
2022-09-30T05:29:26.591Z,2.21
2022-09-30T05:31:54.794Z,2.23
2022-09-30T05:34:23.063Z,2.20
2022-09-30T05:36:53.177Z,2.39
2022-09-30T05:39:21.402Z,2.48
2022-09-30T05:41:49.540Z,2.53
2022-09-30T05:44:19.235Z,2.33
2022-09-30T05:46:47.424Z,2.17
2022-09-30T05:49:15.713Z,2.11
2022-09-30T05:51:43.849Z,2.08
2022-09-30T05:54:13.363Z,2.39
2022-09-30T05:56:41.494Z,2.46
2022-09-30T05:59:09.677Z,2.20
2022-09-30T06:01:38.069Z,2.36
2022-09-30T06:04:06.234Z,2.74
2022-09-30T06:06:34.409Z,2.90
2022-09-30T06:09:02.549Z,3.16
2022-09-30T06:11:32.204Z,3.06
2022-09-30T06:14:00.360Z,3.11
2022-09-30T06:16:28.875Z,3.32
2022-09-30T06:18:57.226Z,3.72
2022-09-30T06:21:25.370Z,3.79
2022-09-30T06:23:53.880Z,3.82
2022-09-30T06:26:22.073Z,3.85
2022-09-30T06:28:51.797Z,4.33
2022-09-30T06:31:19.977Z,4.53
2022-09-30T06:33:48.130Z,4.63
2022-09-30T06:36:17.216Z,4.70
2022-09-30T06:38:45.593Z,4.87
2022-09-30T06:41:13.832Z,5.06
2022-09-30T06:43:46.379Z,5.51
2022-09-30T06:46:27.452Z,5.52
2022-09-30T06:49:14.567Z,5.80
2022-09-30T06:51:42.971Z,5.99
2022-09-30T06:54:11.280Z,6.12
2022-09-30T06:56:39.445Z,6.01
2022-09-30T06:59:07.729Z,6.39
2022-09-30T07:01:38.935Z,6.72
2022-09-30T07:04:09.666Z,6.85
2022-09-30T07:06:38.981Z,7.04
2022-09-30T07:09:08.146Z,7.05
2022-09-30T07:11:37.635Z,6.95
2022-09-30T07:14:06.099Z,7.33
2022-09-30T07:16:34.797Z,7.66
2022-09-30T07:19:06.825Z,7.77
2022-09-30T07:21:35.033Z,7.88
2022-09-30T07:24:03.450Z,8.14
2022-09-30T07:26:31.774Z,8.60
2022-09-30T07:29:00.966Z,8.55
2022-09-30T07:31:34.054Z,8.85
2022-09-30T07:34:07.191Z,8.66
2022-09-30T07:36:37.073Z,8.91
2022-09-30T07:39:07.474Z,9.38
2022-09-30T07:41:37.652Z,9.03
2022-09-30T07:44:06.750Z,9.35
2022-09-30T07:46:39.132Z,9.67
2022-09-30T07:49:13.495Z,9.66
2022-09-30T07:51:45.122Z,9.63
2022-09-30T07:54:15.221Z,10.09
2022-09-30T07:59:34.850Z,10.21
2022-09-30T08:02:03.151Z,10.48
2022-09-30T08:04:32.668Z,10.89
2022-09-30T08:07:02.668Z,11.03
2022-09-30T08:09:31.627Z,10.83
2022-09-30T08:11:59.936Z,10.91
2022-09-30T08:14:29.069Z,10.96
2022-09-30T08:16:58.526Z,11.13
2022-09-30T08:19:28.504Z,11.43
2022-09-30T08:21:58.674Z,11.48
2022-09-30T08:24:27.997Z,11.55
2022-09-30T08:26:56.904Z,11.86
2022-09-30T08:32:13.412Z,12.19
2022-09-30T08:34:41.621Z,12.37
2022-09-30T08:37:11.151Z,12.60
2022-09-30T08:39:40.205Z,12.70
2022-09-30T08:42:39.031Z,12.84
2022-09-30T08:45:22.629Z,12.97
2022-09-30T08:48:00.357Z,13.19
2022-09-30T08:50:35.675Z,13.27
2022-09-30T08:53:12.581Z,13.16
2022-09-30T08:55:43.970Z,13.40
2022-09-30T08:58:21.747Z,13.33
2022-09-30T09:00:52.541Z,13.56
2022-09-30T09:03:22.473Z,13.73
2022-09-30T09:05:57.750Z,13.83
2022-09-30T09:08:35.037Z,13.69
2022-09-30T09:11:13.947Z,13.42
2022-09-30T09:13:50.951Z,13.51
2022-09-30T09:16:26.923Z,13.93
2022-09-30T09:19:10.742Z,13.89
2022-09-30T09:21:50.153Z,13.97
2022-09-30T09:24:24.872Z,13.94
2022-09-30T09:26:55.304Z,14.31
2022-09-30T09:29:33.415Z,14.33
2022-09-30T09:32:03.684Z,14.45
2022-09-30T09:34:33.222Z,14.33
2022-09-30T09:37:12.437Z,14.38
2022-09-30T09:40:04.220Z,14.45
2022-09-30T09:42:48.781Z,14.50
2022-09-30T09:45:27.091Z,14.47
2022-09-30T09:47:57.229Z,14.75
2022-09-30T09:50:36.118Z,14.80
2022-09-30T09:53:23.271Z,14.84
2022-09-30T09:55:57.155Z,14.66
2022-09-30T09:58:25.896Z,14.80
2022-09-30T10:01:11.274Z,14.87
2022-09-30T10:03:39.464Z,14.83
2022-09-30T10:06:10.187Z,14.87
2022-09-30T10:08:40.139Z,14.95
2022-09-30T10:11:21.570Z,15.22
2022-09-30T10:13:51.039Z,14.94
2022-09-30T10:16:32.722Z,15.04
2022-09-30T10:19:02.430Z,15.07
2022-09-30T10:21:33.040Z,15.07
2022-09-30T10:24:20.479Z,15.19
2022-09-30T10:26:49.934Z,15.05
2022-09-30T10:29:29.906Z,15.22
2022-09-30T10:31:59.773Z,15.09
2022-09-30T10:34:30.454Z,15.13
2022-09-30T10:37:02.053Z,15.25
2022-09-30T10:39:32.257Z,15.59
2022-09-30T10:42:07.306Z,15.10
2022-09-30T10:44:43.673Z,15.18
2022-09-30T10:47:17.200Z,15.06
2022-09-30T10:49:49.478Z,15.53
2022-09-30T10:52:20.541Z,15.66
2022-09-30T10:54:51.462Z,15.69
2022-09-30T10:57:25.595Z,15.68
2022-09-30T10:59:58.639Z,15.58
2022-09-30T11:02:32.734Z,15.73
2022-09-30T11:05:08.235Z,15.89
2022-09-30T11:07:43.645Z,15.91
2022-09-30T11:10:34.647Z,16.10
2022-09-30T11:13:11.939Z,15.86
2022-09-30T11:15:48.911Z,16.13
2022-09-30T11:18:23.118Z,16.22
2022-09-30T11:20:56.777Z,16.18
2022-09-30T11:23:31.445Z,16.15
2022-09-30T11:26:06.311Z,16.39
2022-09-30T11:28:54.059Z,16.37
2022-09-30T11:31:31.344Z,15.92
2022-09-30T11:34:24.695Z,16.15
2022-09-30T11:37:00.730Z,15.97
2022-09-30T11:39:48.098Z,16.36
2022-09-30T11:42:24.492Z,16.56
2022-09-30T11:45:01.398Z,16.56
2022-09-30T11:47:39.216Z,16.39
2022-09-30T11:50:23.671Z,16.82
2022-09-30T11:53:02.674Z,16.09
2022-09-30T11:55:48.384Z,16.24
2022-09-30T12:01:21.221Z,16.79
2022-09-30T12:03:57.963Z,16.77
2022-09-30T12:06:32.671Z,16.87
2022-09-30T12:09:07.702Z,16.48
2022-09-30T12:11:43.365Z,16.61
2022-09-30T12:14:18.196Z,17.07
2022-09-30T12:16:51.302Z,16.68
2022-09-30T12:19:26.010Z,16.09
2022-09-30T12:22:00.023Z,15.66
2022-09-30T12:24:35.781Z,16.02
2022-09-30T12:27:05.162Z,15.98
2022-09-30T12:29:55.597Z,15.78
2022-09-30T12:32:42.436Z,16.26
2022-09-30T12:35:36.480Z,16.24
2022-09-30T12:38:21.188Z,15.83
2022-09-30T12:41:02.568Z,16.32
2022-09-30T12:43:51.460Z,16.74
2022-09-30T12:46:26.157Z,16.58
2022-09-30T12:49:00.128Z,16.89
2022-09-30T12:51:32.828Z,16.94
2022-09-30T12:54:07.306Z,16.89
2022-09-30T12:56:37.588Z,16.95
2022-09-30T12:59:05.879Z,16.44
2022-09-30T13:01:37.861Z,16.30
2022-09-30T13:04:33.320Z,16.36
2022-09-30T13:07:23.071Z,16.21
2022-09-30T13:10:00.456Z,16.31
2022-09-30T13:12:42.423Z,16.47
2022-09-30T13:15:43.449Z,16.13
2022-09-30T13:18:47.864Z,15.87
2022-09-30T13:21:26.824Z,15.91
2022-09-30T13:23:56.364Z,15.72
2022-09-30T13:26:49.555Z,15.57
2022-09-30T13:29:48.464Z,15.52
2022-09-30T13:32:33.651Z,15.32
2022-09-30T13:35:03.576Z,15.45
2022-09-30T13:37:39.507Z,15.75
2022-09-30T13:40:37.524Z,15.96
2022-09-30T13:43:06.694Z,16.01
2022-09-30T13:45:39.511Z,16.31
2022-09-30T13:48:12.890Z,16.36
2022-09-30T13:50:47.004Z,16.13
2022-09-30T13:53:23.769Z,16.08
2022-09-30T13:55:54.487Z,16.21
2022-09-30T13:58:49.580Z,15.77
2022-09-30T14:01:32.436Z,15.64
2022-09-30T14:04:24.241Z,15.49
2022-09-30T14:07:09.027Z,15.26
2022-09-30T14:10:06.871Z,15.11
2022-09-30T14:13:00.553Z,15.27
2022-09-30T14:16:16.092Z,15.40
2022-09-30T14:18:58.153Z,15.72
2022-09-30T14:21:35.037Z,16.14
2022-09-30T14:24:10.590Z,16.19
2022-09-30T14:26:53.479Z,16.34
2022-09-30T14:29:31.010Z,16.22
2022-09-30T14:32:01.167Z,16.31
2022-09-30T14:34:31.544Z,16.19
2022-09-30T14:36:59.870Z,15.96
2022-09-30T14:39:32.429Z,15.71
2022-09-30T14:42:03.230Z,15.46
2022-09-30T14:44:36.427Z,15.37
2022-09-30T14:47:05.912Z,15.24
2022-09-30T14:49:37.442Z,15.14
2022-09-30T14:52:06.656Z,15.07
2022-09-30T14:54:34.869Z,14.98
2022-09-30T14:57:16.925Z,14.85
2022-09-30T14:59:45.068Z,14.75
2022-09-30T15:02:16.970Z,14.86
2022-09-30T15:04:49.911Z,14.98
2022-09-30T15:07:18.157Z,15.18
2022-09-30T15:09:48.296Z,15.39
2022-09-30T15:12:21.035Z,15.49
2022-09-30T15:14:50.960Z,15.44
2022-09-30T15:17:20.866Z,15.45
2022-09-30T15:19:50.280Z,15.46
2022-09-30T15:22:19.971Z,15.28
2022-09-30T15:24:49.475Z,15.17
2022-09-30T15:27:22.717Z,15.11
2022-09-30T15:29:57.785Z,15.06
2022-09-30T15:32:28.106Z,14.95
2022-09-30T15:34:58.511Z,14.87
2022-09-30T15:37:33.835Z,14.71
2022-09-30T15:40:21.005Z,14.66
2022-09-30T15:42:59.623Z,14.62
2022-09-30T15:45:35.451Z,14.54
2022-09-30T15:48:07.409Z,14.52
2022-09-30T15:50:38.461Z,14.55
2022-09-30T15:53:21.225Z,14.49
2022-09-30T15:55:55.542Z,14.34
2022-09-30T15:58:38.932Z,14.24
2022-09-30T16:01:14.905Z,14.09
2022-09-30T16:03:50.250Z,13.99
2022-09-30T16:06:25.174Z,13.94
2022-09-30T16:09:01.437Z,13.84
2022-09-30T16:11:34.848Z,13.58
2022-09-30T16:14:06.916Z,13.34
2022-09-30T16:16:37.952Z,13.15
2022-09-30T16:19:07.369Z,12.93
2022-09-30T16:21:44.919Z,12.73
2022-09-30T16:24:48.321Z,12.55
2022-09-30T16:27:31.558Z,12.32
2022-09-30T16:30:02.517Z,12.24
2022-09-30T16:32:37.957Z,12.02
2022-09-30T16:35:07.597Z,11.88
2022-09-30T16:37:36.519Z,11.76
2022-09-30T16:40:17.365Z,11.70
2022-09-30T16:42:45.497Z,11.62
2022-09-30T16:45:16.176Z,11.45
2022-09-30T16:47:44.872Z,11.31
2022-09-30T16:50:27.051Z,11.15
2022-09-30T16:52:55.523Z,11.16
2022-09-30T16:55:23.831Z,11.10
2022-09-30T16:57:52.208Z,10.96
2022-09-30T17:00:21.898Z,10.85
2022-09-30T17:02:50.275Z,10.75
2022-09-30T17:05:20.404Z,10.60
2022-09-30T17:07:52.752Z,10.65
2022-09-30T17:10:23.651Z,10.57
2022-09-30T17:12:52.851Z,10.63
2022-09-30T17:15:23.026Z,10.44
2022-09-30T17:17:52.747Z,10.40
2022-09-30T17:20:21.290Z,10.48
2022-09-30T17:22:50.445Z,10.39
2022-09-30T17:25:19.847Z,10.30
2022-09-30T17:27:49.996Z,10.26
2022-09-30T17:30:18.880Z,10.40
2022-09-30T17:32:49.041Z,10.46
2022-09-30T17:35:17.591Z,10.29
2022-09-30T17:37:46.690Z,10.18
2022-09-30T17:40:33.157Z,10.19
2022-09-30T17:43:11.443Z,9.95
2022-09-30T17:45:41.970Z,9.84
2022-09-30T17:48:12.262Z,9.80
2022-09-30T17:50:42.259Z,9.71
2022-09-30T17:53:13.027Z,9.72
2022-09-30T17:55:41.995Z,9.56
2022-09-30T17:58:12.169Z,9.69
2022-09-30T18:00:41.330Z,9.49
2022-09-30T18:03:11.246Z,9.45
2022-09-30T18:05:39.368Z,9.48
2022-09-30T18:08:07.533Z,9.51
2022-09-30T18:10:37.292Z,9.20
2022-09-30T18:13:05.509Z,9.24
2022-09-30T18:15:33.944Z,9.16
2022-09-30T18:18:02.059Z,9.41
2022-09-30T18:20:31.554Z,9.39
2022-09-30T18:22:59.688Z,9.16
2022-09-30T18:25:27.799Z,9.11
2022-09-30T18:27:59.197Z,9.00
2022-09-30T18:30:27.808Z,8.85
2022-09-30T18:32:57.096Z,8.90
2022-09-30T18:35:25.737Z,8.84
2022-09-30T18:37:55.442Z,8.69
2022-09-30T18:40:25.906Z,8.72
2022-09-30T18:42:58.374Z,8.65
2022-09-30T18:45:27.318Z,8.75
2022-09-30T18:47:57.018Z,8.54
2022-09-30T18:50:26.653Z,8.67
2022-09-30T18:52:57.770Z,8.71
2022-09-30T18:55:26.590Z,8.34
2022-09-30T18:57:56.042Z,8.38
2022-09-30T19:00:24.215Z,8.41
2022-09-30T19:02:53.143Z,8.41
2022-09-30T19:05:21.417Z,8.37
2022-09-30T19:07:49.624Z,8.32
2022-09-30T19:10:19.397Z,8.19
2022-09-30T19:12:47.574Z,8.32
2022-09-30T19:15:16.463Z,8.27
2022-09-30T19:17:45.174Z,8.43
2022-09-30T19:20:15.165Z,8.13
2022-09-30T19:22:43.516Z,8.11
2022-09-30T19:25:12.763Z,8.13
2022-09-30T19:27:42.611Z,8.13
2022-09-30T19:30:12.923Z,7.94
2022-09-30T19:32:41.400Z,7.92
2022-09-30T19:35:12.477Z,8.04
2022-09-30T19:37:56.192Z,8.02
2022-09-30T19:40:29.505Z,8.02
2022-09-30T19:42:59.200Z,7.98
2022-09-30T19:45:28.031Z,7.71
2022-09-30T19:47:57.469Z,7.89
2022-09-30T19:50:25.581Z,7.87
2022-09-30T19:52:57.364Z,7.80
2022-09-30T19:55:26.650Z,7.82
2022-09-30T19:57:54.842Z,7.97
2022-09-30T20:00:24.619Z,7.94
2022-09-30T20:02:52.794Z,7.89
2022-09-30T20:05:22.235Z,8.05
2022-09-30T20:07:51.130Z,8.03
2022-09-30T20:10:19.792Z,7.78
2022-09-30T20:12:48.276Z,7.64
2022-09-30T20:15:34.155Z,7.71
2022-09-30T20:18:03.650Z,7.67
2022-09-30T20:20:41.675Z,7.63
2022-09-30T20:23:09.805Z,7.48
2022-09-30T20:25:38.325Z,7.69
2022-09-30T20:28:07.267Z,7.49
2022-09-30T20:30:45.533Z,7.30
2022-09-30T20:33:17.137Z,7.47
2022-09-30T20:35:45.545Z,7.66
2022-09-30T20:38:15.930Z,7.36
2022-09-30T20:40:44.791Z,7.33
2022-09-30T20:43:13.279Z,7.49
2022-09-30T20:45:41.492Z,7.24
2022-09-30T20:48:09.670Z,7.58
2022-09-30T20:50:43.373Z,7.48
2022-09-30T20:53:13.997Z,7.49
2022-09-30T20:55:44.383Z,7.21
2022-09-30T20:58:13.939Z,7.42
2022-09-30T21:00:43.161Z,7.26
2022-09-30T21:03:13.389Z,7.36
2022-09-30T21:05:52.465Z,7.46
2022-09-30T21:08:20.696Z,7.32
2022-09-30T21:10:48.808Z,7.02
2022-09-30T21:13:16.953Z,7.09
2022-09-30T21:15:45.362Z,7.05
2022-09-30T21:18:13.487Z,7.14
2022-09-30T21:20:42.949Z,7.05
2022-09-30T21:23:11.164Z,6.84
2022-09-30T21:25:39.324Z,6.80
2022-09-30T21:28:08.043Z,6.78
2022-09-30T21:30:42.603Z,6.76
2022-09-30T21:33:10.985Z,6.56
2022-09-30T21:35:39.097Z,6.64
2022-09-30T21:38:08.619Z,6.26
2022-09-30T21:40:37.214Z,6.51
2022-09-30T21:43:05.673Z,6.60
2022-09-30T21:45:33.824Z,6.56
2022-09-30T21:48:02.736Z,6.53
2022-09-30T21:50:32.793Z,6.38
2022-09-30T21:53:01.110Z,6.34
2022-09-30T21:55:30.715Z,6.38
2022-09-30T21:57:58.949Z,6.31
2022-09-30T22:00:27.312Z,6.24
2022-09-30T22:02:55.476Z,6.38
2022-09-30T22:05:23.604Z,6.45
2022-09-30T22:07:51.720Z,6.36
2022-09-30T22:10:19.846Z,6.42
2022-09-30T22:12:51.101Z,6.31
2022-09-30T22:15:19.318Z,6.13
2022-09-30T22:17:47.444Z,6.41
2022-09-30T22:20:16.011Z,6.53
2022-09-30T22:22:44.260Z,6.44
2022-09-30T22:25:12.432Z,6.35
2022-09-30T22:27:40.585Z,6.45
2022-09-30T22:30:11.800Z,6.52
2022-09-30T22:32:39.929Z,6.51
2022-09-30T22:35:31.435Z,6.52
2022-09-30T22:38:17.517Z,6.64
2022-09-30T22:40:45.953Z,6.67
2022-09-30T22:43:14.404Z,6.66
2022-09-30T22:45:44.910Z,6.54
2022-09-30T22:48:13.073Z,6.38
2022-09-30T22:50:41.205Z,6.59
2022-09-30T22:53:09.327Z,6.62
2022-09-30T22:55:38.306Z,6.78
2022-09-30T22:58:06.454Z,6.79
2022-09-30T23:00:34.591Z,6.63
2022-09-30T23:03:04.056Z,6.72
2022-09-30T23:05:34.337Z,6.77
2022-09-30T23:08:03.211Z,6.80
2022-09-30T23:10:31.483Z,6.59
2022-09-30T23:13:00.333Z,6.81
2022-09-30T23:15:28.439Z,6.99
2022-09-30T23:17:56.571Z,6.98
2022-09-30T23:20:26.153Z,6.84
2022-09-30T23:22:54.293Z,6.84
2022-09-30T23:25:22.465Z,6.97
2022-09-30T23:27:50.633Z,7.08
2022-09-30T23:30:18.797Z,6.94
2022-09-30T23:32:47.170Z,6.94
2022-09-30T23:35:15.370Z,7.11
2022-09-30T23:37:44.833Z,7.02
2022-09-30T23:40:13.120Z,7.05
2022-09-30T23:42:41.234Z,6.96
2022-09-30T23:45:10.667Z,6.64
2022-09-30T23:47:38.811Z,6.70
2022-09-30T23:50:07.951Z,6.67
2022-09-30T23:52:36.085Z,6.63
2022-09-30T23:55:06.236Z,6.74
2022-09-30T23:57:34.348Z,6.88
